createdAt,value
2022-08-17T00:07:24.111Z,4.03
2022-08-17T00:17:27.670Z,4.03
2022-08-17T00:37:33.322Z,4.85
2022-08-17T00:47:36.010Z,5.17
2022-08-17T00:57:46.855Z,4.33
2022-08-17T01:07:53.548Z,4.70
2022-08-17T01:17:56.481Z,4.37
2022-08-17T01:27:59.022Z,4.53
2022-08-17T01:38:01.552Z,4.47
2022-08-17T01:48:04.282Z,4.07
2022-08-17T01:58:10.159Z,4.80
2022-08-17T02:08:19.843Z,4.25
2022-08-17T02:18:23.783Z,4.05
2022-08-17T02:28:26.919Z,4.47
2022-08-17T02:38:29.737Z,3.67
2022-08-17T02:48:32.699Z,5.00
2022-08-17T02:58:36.278Z,4.37
2022-08-17T03:18:40.860Z,3.53
2022-08-17T03:28:43.443Z,4.35
2022-08-17T03:38:45.809Z,4.00
2022-08-17T03:49:07.508Z,4.57
2022-08-17T03:59:20.883Z,4.18
2022-08-17T04:09:25.597Z,3.75
2022-08-17T04:19:28.912Z,4.17
2022-08-17T04:29:49.939Z,4.10
2022-08-17T04:40:14.316Z,4.25
2022-08-17T04:50:17.168Z,3.62
2022-08-17T05:00:19.801Z,3.60
2022-08-17T05:10:24.513Z,4.03
2022-08-17T05:20:28.493Z,4.15
2022-08-17T05:30:32.379Z,5.22
2022-08-17T05:40:43.265Z,4.12
2022-08-17T05:51:11.614Z,3.67
2022-08-17T06:01:56.394Z,4.93
2022-08-17T06:12:05.401Z,3.80
2022-08-17T06:22:15.945Z,3.80
2022-08-17T06:32:20.088Z,5.07
2022-08-17T06:53:28.823Z,3.65
2022-08-17T07:03:57.969Z,3.95
2022-08-17T07:14:03.604Z,3.53
2022-08-17T07:24:26.377Z,3.22
2022-08-17T07:35:10.700Z,3.80
2022-08-17T07:45:35.226Z,3.37
2022-08-17T07:55:41.934Z,3.10
2022-08-17T08:05:57.941Z,3.05
2022-08-17T08:16:30.168Z,3.30
2022-08-17T08:26:47.843Z,4.05
2022-08-17T08:37:22.598Z,4.22
2022-08-17T08:48:53.251Z,4.07
2022-08-17T09:10:57.117Z,3.50
2022-08-17T09:32:37.409Z,3.15
2022-08-17T09:53:31.665Z,2.58
2022-08-17T10:26:28.507Z,3.55
2022-08-17T10:37:04.572Z,2.72
2022-08-17T10:47:10.400Z,3.22
2022-08-17T10:57:45.851Z,3.00
2022-08-17T11:07:52.247Z,2.87
2022-08-17T11:18:33.517Z,2.70
2022-08-17T11:28:52.544Z,2.30
2022-08-17T11:39:05.204Z,2.50
2022-08-17T12:12:38.441Z,3.35
2022-08-17T12:57:00.448Z,2.43
2022-08-17T13:07:07.396Z,2.12
2022-08-17T13:17:29.996Z,2.00
2022-08-17T13:27:45.875Z,2.15
2022-08-17T13:38:10.005Z,2.08
2022-08-17T13:48:32.966Z,2.17
2022-08-17T13:58:42.673Z,2.53
2022-08-17T14:08:45.441Z,2.67
2022-08-17T14:18:56.650Z,2.70
2022-08-17T14:29:04.854Z,4.60
2022-08-17T14:39:26.324Z,4.30
2022-08-17T14:49:30.674Z,3.17
2022-08-17T14:59:34.392Z,6.18
2022-08-17T15:09:40.448Z,5.68
2022-08-17T15:19:44.441Z,4.35
2022-08-17T15:29:51.218Z,5.40
2022-08-17T15:39:55.427Z,4.50
2022-08-17T15:50:00.286Z,4.10
2022-08-17T16:00:07.607Z,4.07
2022-08-17T16:10:14.136Z,3.95
2022-08-17T16:20:21.103Z,3.70
2022-08-17T16:30:26.568Z,4.60
2022-08-17T16:40:31.309Z,3.42
2022-08-17T16:51:02.985Z,3.75
2022-08-17T17:01:11.460Z,3.55
2022-08-17T17:21:52.448Z,3.70
2022-08-17T17:32:14.136Z,3.33
2022-08-17T17:42:25.196Z,4.37
2022-08-17T17:52:39.441Z,5.72
2022-08-17T18:02:55.438Z,4.57
2022-08-17T18:13:18.214Z,4.28
2022-08-17T18:23:27.068Z,4.30
2022-08-17T18:33:31.370Z,3.90
2022-08-17T18:43:53.103Z,4.67
2022-08-17T18:54:18.368Z,4.47
2022-08-17T19:04:38.814Z,4.18
2022-08-17T19:14:42.739Z,3.50
2022-08-17T19:24:47.769Z,3.70
2022-08-17T19:34:51.592Z,4.30
2022-08-17T19:55:32.361Z,4.00
2022-08-17T20:06:08.698Z,3.90
2022-08-17T20:16:05.787Z,3.53
2022-08-17T20:36:25.048Z,3.55
2022-08-17T20:46:33.045Z,4.47
2022-08-17T20:56:45.051Z,4.30
2022-08-17T21:07:25.430Z,3.72
2022-08-17T21:17:36.842Z,4.20
2022-08-17T21:27:59.187Z,3.87
2022-08-17T21:38:05.673Z,3.37
2022-08-17T21:48:16.639Z,4.95
2022-08-17T21:58:34.647Z,4.00
2022-08-17T22:08:37.501Z,3.62
2022-08-17T22:18:41.492Z,3.60
2022-08-17T22:28:52.743Z,5.20
2022-08-17T22:39:08.145Z,4.90
2022-08-17T22:49:11.363Z,6.10
2022-08-17T22:59:32.640Z,5.93
2022-08-17T23:09:36.295Z,3.95
2022-08-17T23:19:39.102Z,4.33
2022-08-17T23:29:42.901Z,4.62
2022-08-17T23:39:45.847Z,3.67
2022-08-17T23:49:48.483Z,4.35
2022-08-17T23:59:56.603Z,4.60
